createdAt,value
2022-08-03T00:04:34.073Z,101164.75
2022-08-03T00:09:36.265Z,101165.78
2022-08-03T00:14:38.057Z,101168.31
2022-08-03T00:19:39.820Z,101157.78
2022-08-03T00:24:41.587Z,101157.84
2022-08-03T00:29:59.838Z,101161.34
2022-08-03T00:35:07.914Z,101148.16
2022-08-03T00:40:15.238Z,101140.44
2022-08-03T00:45:40.377Z,101147.19
2022-08-03T00:50:43.590Z,101139.31
2022-08-03T00:55:45.766Z,101145.53
2022-08-03T01:00:47.594Z,101147.34
2022-08-03T01:05:52.158Z,101140.34
2022-08-03T01:11:36.546Z,101133.34
2022-08-03T01:17:19.642Z,101123.91
2022-08-03T01:23:31.509Z,101133.59
2022-08-03T01:29:10.391Z,101117.66
2022-08-03T01:34:17.142Z,101115.16
2022-08-03T01:39:21.801Z,101122.22
2022-08-03T01:44:27.698Z,101117.75
2022-08-03T01:49:39.476Z,101122.13
2022-08-03T01:54:46.568Z,101109.81
2022-08-03T01:59:50.666Z,101113.34
2022-08-03T02:04:57.584Z,101109.00
2022-08-03T02:10:02.911Z,101109.88
2022-08-03T02:15:07.200Z,101103.66
2022-08-03T02:20:13.329Z,101115.91
2022-08-03T02:25:17.929Z,101115.03
2022-08-03T02:30:21.112Z,101101.78
2022-08-03T02:35:27.913Z,101112.38
2022-08-03T02:40:32.371Z,101110.63
2022-08-03T02:45:42.583Z,101112.31
2022-08-03T02:50:48.465Z,101103.59
2022-08-03T02:55:52.246Z,101112.38
2022-08-03T03:00:55.910Z,101116.00
2022-08-03T03:05:59.819Z,101124.88
2022-08-03T03:11:02.179Z,101116.09
2022-08-03T03:16:07.413Z,101116.91
2022-08-03T03:21:11.213Z,101115.09
2022-08-03T03:26:16.256Z,101108.09
2022-08-03T03:31:18.240Z,101106.41
2022-08-03T03:36:20.197Z,101107.19
2022-08-03T03:41:21.922Z,101098.59
2022-08-03T03:46:23.932Z,101112.53
2022-08-03T03:51:25.774Z,101107.25
2022-08-03T03:56:28.743Z,101126.59
2022-08-03T04:01:31.738Z,101112.59
2022-08-03T04:06:51.801Z,101103.81
2022-08-03T04:12:01.589Z,101118.63
2022-08-03T04:17:08.732Z,101106.25
2022-08-03T04:22:15.274Z,101118.56
2022-08-03T04:27:25.551Z,101113.34
2022-08-03T04:32:29.678Z,101111.63
2022-08-03T04:37:47.926Z,101126.56
2022-08-03T04:42:53.501Z,101132.81
2022-08-03T04:47:56.068Z,101133.63
2022-08-03T04:52:57.889Z,101114.41
2022-08-03T04:58:01.238Z,101129.25
2022-08-03T05:03:02.992Z,101119.56
2022-08-03T05:08:05.193Z,101123.94
2022-08-03T05:13:13.352Z,101128.31
2022-08-03T05:18:15.336Z,101131.84
2022-08-03T05:23:17.189Z,101130.06
2022-08-03T05:28:19.094Z,101132.44
2022-08-03T05:33:20.801Z,101129.03
2022-08-03T05:38:28.170Z,101146.56
2022-08-03T05:43:31.976Z,101138.41
2022-08-03T05:48:33.688Z,101153.25
2022-08-03T05:53:35.689Z,101133.75
2022-08-03T05:58:37.426Z,101135.97
2022-08-03T06:03:39.147Z,101132.16
2022-08-03T06:08:43.544Z,101150.00
2022-08-03T06:13:45.611Z,101144.91
2022-08-03T06:18:47.752Z,101140.06
2022-08-03T06:23:53.947Z,101142.25
2022-08-03T06:28:57.397Z,101145.28
2022-08-03T06:34:33.069Z,101142.19
2022-08-03T06:39:23.190Z,101136.88
2022-08-03T06:44:25.602Z,101142.63
2022-08-03T06:49:27.732Z,101143.59
2022-08-03T06:54:32.856Z,101140.09
2022-08-03T07:00:07.393Z,101137.84
2022-08-03T07:04:57.578Z,101134.44
2022-08-03T07:09:59.509Z,101144.03
2022-08-03T07:15:03.758Z,101139.25
2022-08-03T07:20:08.341Z,101140.47
2022-08-03T07:25:10.557Z,101137.06
2022-08-03T07:30:14.349Z,101129.16
2022-08-03T07:35:24.996Z,101143.03
2022-08-03T07:40:30.628Z,101138.50
2022-08-03T07:45:33.745Z,101130.06
2022-08-03T07:50:35.563Z,101139.69
2022-08-03T07:55:37.400Z,101134.34
2022-08-03T08:00:39.584Z,101146.81
2022-08-03T08:05:41.376Z,101132.50
2022-08-03T08:10:43.135Z,101128.72
2022-08-03T08:16:01.152Z,101135.03
2022-08-03T08:21:03.462Z,101137.44
2022-08-03T08:26:05.917Z,101134.69
2022-08-03T08:31:07.833Z,101133.91
2022-08-03T08:36:14.780Z,101118.50
2022-08-03T08:41:17.536Z,101133.22
2022-08-03T08:46:23.960Z,101135.22
2022-08-03T08:51:51.049Z,101135.84
2022-08-03T08:57:06.629Z,101133.06
2022-08-03T09:02:18.287Z,101120.72
2022-08-03T09:07:20.915Z,101124.00
2022-08-03T09:12:41.216Z,101117.63
2022-08-03T09:17:46.531Z,101098.91
2022-08-03T09:22:55.941Z,101110.66
2022-08-03T09:28:58.081Z,101113.47
2022-08-03T09:33:49.936Z,101108.78
2022-08-03T09:39:15.845Z,101111.66
2022-08-03T09:44:25.637Z,101099.16
2022-08-03T09:49:27.816Z,101101.19
2022-08-03T09:54:32.543Z,101108.19
2022-08-03T09:59:35.559Z,101103.03
2022-08-03T10:04:48.759Z,101102.09
2022-08-03T10:10:29.071Z,101097.72
2022-08-03T10:16:21.762Z,101089.66
2022-08-03T10:21:10.363Z,101086.97
2022-08-03T10:26:18.923Z,101092.38
2022-08-03T10:31:24.061Z,101075.66
2022-08-03T10:36:30.610Z,101068.78
2022-08-03T10:41:44.587Z,101050.38
2022-08-03T10:46:51.828Z,101065.88
2022-08-03T10:51:54.519Z,101062.91
2022-08-03T10:57:14.831Z,101058.78
2022-08-03T11:02:17.862Z,101047.09
2022-08-03T11:07:25.615Z,101055.47
2022-08-03T11:12:33.637Z,101043.25
2022-08-03T11:17:46.175Z,101053.47
2022-08-03T11:23:01.102Z,101027.97
2022-08-03T11:28:46.098Z,101020.81
2022-08-03T11:34:09.946Z,101038.66
2022-08-03T11:39:16.870Z,100997.94
2022-08-03T11:44:47.502Z,101019.84
2022-08-03T11:50:00.312Z,101006.84
2022-08-03T11:55:03.097Z,100983.22
2022-08-03T12:00:30.594Z,101021.44
2022-08-03T12:05:54.762Z,100980.03
2022-08-03T12:11:00.494Z,100970.38
2022-08-03T12:16:02.619Z,101001.41
2022-08-03T12:21:12.649Z,101028.03
2022-08-03T12:26:14.362Z,101020.00
2022-08-03T12:31:16.858Z,101005.41
2022-08-03T12:36:19.513Z,101016.63
2022-08-03T12:41:35.305Z,101000.84
2022-08-03T12:46:47.064Z,100981.47
2022-08-03T12:51:52.950Z,100996.88
2022-08-03T12:57:11.211Z,100979.56
2022-08-03T13:02:19.879Z,100982.84
2022-08-03T13:07:27.885Z,100970.06
2022-08-03T13:12:30.691Z,100964.00
2022-08-03T13:17:32.675Z,100964.47
2022-08-03T13:22:35.161Z,100939.19
2022-08-03T13:28:04.229Z,100924.44
2022-08-03T13:33:00.485Z,100961.91
2022-08-03T13:38:02.386Z,100934.78
2022-08-03T13:43:04.624Z,100925.69
2022-08-03T13:48:06.956Z,100937.19
2022-08-03T13:53:08.780Z,100962.75
2022-08-03T13:58:12.366Z,100937.59
2022-08-03T14:03:15.017Z,100952.69
2022-08-03T14:08:17.104Z,100957.75
2022-08-03T14:13:18.863Z,100945.75
2022-08-03T14:18:28.971Z,100926.25
2022-08-03T14:23:39.516Z,100925.47
2022-08-03T14:28:41.771Z,100925.47
2022-08-03T14:33:43.694Z,100916.03
2022-08-03T14:38:46.299Z,100894.28
2022-08-03T14:44:01.716Z,100927.84
2022-08-03T14:50:36.171Z,100942.31
2022-08-03T14:54:28.624Z,100914.09
2022-08-03T14:59:56.015Z,100916.06
2022-08-03T15:04:52.889Z,100921.31
2022-08-03T15:09:54.654Z,100910.88
2022-08-03T15:14:56.726Z,100914.22
2022-08-03T15:20:04.060Z,100899.25
2022-08-03T15:26:32.174Z,100893.88
2022-08-03T15:30:42.015Z,100897.53
2022-08-03T15:35:44.036Z,100892.16
2022-08-03T15:40:45.951Z,100899.16
2022-08-03T15:45:47.910Z,100895.72
2022-08-03T15:50:49.673Z,100891.09
2022-08-03T15:55:51.506Z,100899.59
2022-08-03T16:00:53.250Z,100888.69
2022-08-03T16:05:55.545Z,100889.81
2022-08-03T16:10:58.864Z,100877.69
2022-08-03T16:16:03.760Z,100880.72
2022-08-03T16:21:05.463Z,100888.84
2022-08-03T16:26:10.151Z,100873.69
2022-08-03T16:31:11.904Z,100876.72
2022-08-03T16:36:13.647Z,100873.78
2022-08-03T16:41:15.630Z,100869.50
2022-08-03T16:46:17.354Z,100869.66
2022-08-03T16:51:20.768Z,100870.47
2022-08-03T16:56:25.387Z,100869.78
2022-08-03T17:01:35.637Z,100867.50
2022-08-03T17:06:44.948Z,100879.50
2022-08-03T17:11:51.984Z,100883.72
2022-08-03T17:17:00.971Z,100886.91
2022-08-03T17:22:19.159Z,100885.00
2022-08-03T17:28:48.700Z,100880.63
2022-08-03T17:32:56.717Z,100895.06
2022-08-03T17:38:05.738Z,100886.38
2022-08-03T17:44:17.138Z,100874.06
2022-08-03T17:48:33.631Z,100898.53
2022-08-03T17:53:43.161Z,100901.44
2022-08-03T17:59:50.630Z,100890.28
2022-08-03T18:05:16.818Z,100896.22
2022-08-03T18:10:25.482Z,100901.00
2022-08-03T18:15:34.743Z,100894.81
2022-08-03T18:20:42.165Z,100902.53
2022-08-03T18:25:53.681Z,100891.22
2022-08-03T18:31:05.701Z,100893.00
2022-08-03T18:36:21.960Z,100892.53
2022-08-03T18:41:35.067Z,100893.94
2022-08-03T18:47:22.867Z,100909.34
2022-08-03T18:52:55.921Z,100901.22
2022-08-03T18:58:15.933Z,100919.47
2022-08-03T19:03:25.397Z,100907.38
2022-08-03T19:08:59.864Z,100913.09
2022-08-03T19:14:05.264Z,100911.63
2022-08-03T19:19:19.634Z,100921.66
2022-08-03T19:24:25.987Z,100930.00
2022-08-03T19:29:56.508Z,100928.59
2022-08-03T19:34:53.543Z,100923.59
2022-08-03T19:39:57.984Z,100917.81
2022-08-03T19:45:13.866Z,100933.94
2022-08-03T19:50:20.468Z,100931.44
2022-08-03T19:55:23.564Z,100920.25
2022-08-03T20:00:36.881Z,100921.31
2022-08-03T20:05:45.167Z,100925.16
2022-08-03T20:10:54.886Z,100933.19
2022-08-03T20:15:56.606Z,100920.19
2022-08-03T20:21:06.425Z,100910.69
2022-08-03T20:26:20.216Z,100911.84
2022-08-03T20:31:32.221Z,100904.75
2022-08-03T20:36:38.120Z,100900.72
2022-08-03T20:41:42.052Z,100916.69
2022-08-03T20:46:53.093Z,100905.59
2022-08-03T20:52:01.557Z,100918.28
2022-08-03T20:57:07.138Z,100914.34
2022-08-03T21:02:12.153Z,100901.25
2022-08-03T21:07:25.228Z,100917.13
2022-08-03T21:13:17.063Z,100919.00
2022-08-03T21:18:22.444Z,100912.31
2022-08-03T21:23:39.802Z,100908.88
2022-08-03T21:28:49.694Z,100927.56
2022-08-03T21:34:00.215Z,100919.00
2022-08-03T21:39:08.115Z,100915.59
2022-08-03T21:44:10.038Z,100908.00
2022-08-03T21:50:06.832Z,100916.97
2022-08-03T21:54:42.626Z,100917.78
2022-08-03T22:00:14.727Z,100919.91
2022-08-03T22:05:19.312Z,100920.81
2022-08-03T22:10:30.966Z,100917.53
2022-08-03T22:15:33.224Z,100919.25
2022-08-03T22:20:35.297Z,100911.53
2022-08-03T22:25:40.312Z,100924.06
2022-08-03T22:30:43.700Z,100934.06
2022-08-03T22:35:51.450Z,100935.28
2022-08-03T22:40:56.178Z,100938.31
2022-08-03T22:46:10.029Z,100938.69
2022-08-03T22:51:16.352Z,100940.59
2022-08-03T22:56:18.148Z,100938.13
2022-08-03T23:01:26.213Z,100946.75
2022-08-03T23:06:36.172Z,100942.69
2022-08-03T23:11:45.686Z,100940.84
2022-08-03T23:16:50.169Z,100944.47
2022-08-03T23:22:03.221Z,100942.72
2022-08-03T23:27:09.136Z,100931.38
2022-08-03T23:32:13.212Z,100926.09
2022-08-03T23:37:15.609Z,100931.50
2022-08-03T23:42:21.274Z,100930.00
2022-08-03T23:47:24.736Z,100925.59
2022-08-03T23:53:08.713Z,100935.34
2022-08-03T23:59:17.433Z,100938.94
